Time;durP1;ratioP1;P1;durP2;ratioP2;P2;SDS_P1;SDS_P2;PMS_P1;PMS_P2;Temp;Humidity;BMP_temperature;BMP_pressure;BME280_temperature;BME280_humidity;BME280_pressure;Samples;Min_cycle;Max_cycle;Signal;HPM_P1;HPM_P2
2022/01/29 00:01:05;;;;;;;58.25;33.70;;;6.60;99.90;;;;;;5092893;28;20527;-51
2022/01/29 00:03:31;;;;;;;64.72;33.75;;;6.60;99.90;;;;;;5092634;28;20127;-51
2022/01/29 00:05:58;;;;;;;61.28;33.30;;;6.60;99.90;;;;;;5092388;28;20411;-52
2022/01/29 00:08:25;;;;;;;63.75;33.42;;;6.70;99.90;;;;;;5058075;28;20542;-54
2022/01/29 00:10:56;;;;;;;63.33;33.47;;;6.70;99.90;;;;;;5089129;28;20078;-51
2022/01/29 00:13:21;;;;;;;52.10;32.20;;;6.70;99.90;;;;;;5092226;28;20119;-51
2022/01/29 00:15:47;;;;;;;54.25;31.15;;;6.70;99.90;;;;;;5092462;28;20076;-51
2022/01/29 00:18:13;;;;;;;66.25;34.42;;;6.70;99.90;;;;;;5092670;28;20059;-53
2022/01/29 00:20:38;;;;;;;54.03;31.00;;;6.70;99.90;;;;;;5092561;28;20036;-53
2022/01/29 00:23:04;;;;;;;53.90;32.60;;;6.70;99.90;;;;;;5092294;28;20032;-53
2022/01/29 00:25:30;;;;;;;57.30;30.83;;;6.70;99.90;;;;;;5092132;28;20040;-52
2022/01/29 00:27:57;;;;;;;62.67;31.85;;;6.70;99.90;;;;;;5092198;28;20407;-53
2022/01/29 00:30:30;;;;;;;57.72;32.53;;;6.70;99.90;;;;;;5091777;28;20040;-54
2022/01/29 00:32:56;;;;;;;62.03;31.90;;;6.90;99.90;;;;;;5073803;28;20047;-52
2022/01/29 00:35:21;;;;;;;59.47;31.45;;;6.70;99.90;;;;;;5092431;28;20097;-52
2022/01/29 00:37:47;;;;;;;59.30;32.65;;;6.90;99.90;;;;;;5092048;28;20036;-52
2022/01/29 00:40:13;;;;;;;63.78;32.67;;;6.70;99.90;;;;;;5092020;28;20047;-56
2022/01/29 00:42:40;;;;;;;66.18;34.17;;;6.70;99.90;;;;;;5092210;28;20475;-52
2022/01/29 00:45:06;;;;;;;64.75;33.95;;;6.70;99.90;;;;;;5091924;28;20032;-55
2022/01/29 00:47:32;;;;;;;64.30;35.95;;;6.60;99.90;;;;;;5089626;28;20040;-48
2022/01/29 00:49:58;;;;;;;68.63;36.08;;;6.60;99.90;;;;;;5091842;28;20035;-55
2022/01/29 00:52:23;;;;;;;74.18;35.28;;;6.60;99.90;;;;;;5056823;28;20455;-53
2022/01/29 00:54:49;;;;;;;70.82;34.80;;;6.70;99.90;;;;;;5091865;28;20089;-53
2022/01/29 00:57:15;;;;;;;69.18;33.80;;;6.60;99.90;;;;;;5073539;28;20399;-54
2022/01/29 00:59:41;;;;;;;71.90;36.15;;;6.60;99.90;;;;;;5091607;28;20621;-52
2022/01/29 01:02:09;;;;;;;71.20;36.30;;;6.50;99.90;;;;;;5091740;28;20522;-51
2022/01/29 01:04:39;;;;;;;67.72;36.40;;;6.50;99.90;;;;;;5090725;28;20524;-52
2022/01/29 01:07:09;;;;;;;64.03;34.55;;;6.50;99.90;;;;;;5089809;28;20047;-53
2022/01/29 01:09:34;;;;;;;70.28;36.92;;;6.50;99.90;;;;;;5072979;28;20387;-52
2022/01/29 01:12:00;;;;;;;72.70;37.97;;;6.60;99.90;;;;;;5091602;28;20032;-54
2022/01/29 01:14:26;;;;;;;79.57;37.53;;;6.60;99.90;;;;;;5091412;28;20040;-55
2022/01/29 01:16:52;;;;;;;72.57;36.20;;;6.50;99.90;;;;;;5091431;28;20048;-54
2022/01/29 01:19:17;;;;;;;62.78;34.03;;;6.60;99.90;;;;;;5091677;28;20032;-52
2022/01/29 01:21:43;;;;;;;82.13;38.83;;;6.50;99.90;;;;;;5091548;28;20040;-51
2022/01/29 01:24:09;;;;;;;79.38;39.30;;;6.50;99.90;;;;;;5091364;28;20047;-49
2022/01/29 01:26:34;;;;;;;75.07;37.55;;;6.50;99.90;;;;;;5091127;28;20483;-52
2022/01/29 01:29:00;;;;;;;72.72;37.45;;;6.50;99.90;;;;;;5090974;28;20028;-51
2022/01/29 01:31:26;;;;;;;81.40;39.35;;;6.50;99.90;;;;;;5073172;28;20036;-52
2022/01/29 01:33:52;;;;;;;79.50;39.00;;;6.50;99.90;;;;;;5073177;28;20036;-53
2022/01/29 01:36:22;;;;;;;73.10;37.25;;;6.60;99.90;;;;;;5072714;28;20055;-50
2022/01/29 01:38:56;;;;;;;72.20;38.90;;;6.60;99.90;;;;;;5091340;28;20139;-53
2022/01/29 01:41:25;;;;;;;74.63;39.15;;;6.60;99.90;;;;;;5091272;28;20040;-50
2022/01/29 01:43:58;;;;;;;72.45;36.47;;;6.60;99.90;;;;;;5091040;28;20086;-50
2022/01/29 01:46:24;;;;;;;81.63;39.38;;;6.60;99.90;;;;;;5091073;28;20040;-50
2022/01/29 01:48:50;;;;;;;65.25;34.45;;;6.60;99.90;;;;;;5091208;28;20089;-53
2022/01/29 01:51:17;;;;;;;73.22;37.80;;;6.60;99.90;;;;;;5091203;28;20238;-52
2022/01/29 01:53:42;;;;;;;76.78;39.20;;;6.60;99.90;;;;;;5091243;28;20044;-52
2022/01/29 01:56:08;;;;;;;75.00;36.17;;;6.70;99.90;;;;;;5091270;28;20036;-52
2022/01/29 01:58:34;;;;;;;79.70;37.80;;;6.60;99.90;;;;;;5091310;28;20070;-50
2022/01/29 02:00:59;;;;;;;72.18;36.00;;;6.70;99.90;;;;;;5090285;28;20505;-52
2022/01/29 02:03:25;;;;;;;69.18;34.35;;;6.70;99.90;;;;;;5091171;28;20039;-50
2022/01/29 02:05:52;;;;;;;77.15;38.80;;;6.70;99.90;;;;;;5090377;28;20059;-55
2022/01/29 02:08:18;;;;;;;85.28;39.13;;;6.70;99.90;;;;;;5090972;28;20048;-51
2022/01/29 02:10:48;;;;;;;82.13;36.55;;;6.70;99.90;;;;;;5090670;28;20040;-53
2022/01/29 02:13:14;;;;;;;83.40;38.20;;;6.70;99.90;;;;;;5091193;28;20088;-54
2022/01/29 02:15:40;;;;;;;83.50;37.95;;;6.70;99.90;;;;;;5092422;28;20538;-54
2022/01/29 02:18:12;;;;;;;79.85;36.53;;;6.70;99.90;;;;;;5094906;28;20024;-54
2022/01/29 02:20:39;;;;;;;81.50;38.15;;;6.70;99.90;;;;;;5094291;28;20161;-53
2022/01/29 02:23:05;;;;;;;84.35;36.13;;;6.70;99.90;;;;;;5093147;28;20550;-51
2022/01/29 02:25:41;;;;;;;77.90;36.63;;;6.70;99.90;;;;;;5094239;28;20031;-55
2022/01/29 02:28:12;;;;;;;82.05;36.13;;;6.80;99.90;;;;;;5094664;28;20039;-51
2022/01/29 02:30:40;;;;;;;78.93;37.30;;;6.80;99.90;;;;;;5094421;28;20024;-52
2022/01/29 02:33:10;;;;;;;83.63;37.55;;;6.80;99.90;;;;;;5076349;28;20047;-53
2022/01/29 02:35:41;;;;;;;81.90;36.45;;;6.80;99.90;;;;;;5094386;28;20039;-54
2022/01/29 02:38:07;;;;;;;88.95;36.60;;;6.80;99.90;;;;;;5094413;28;20039;-52
2022/01/29 02:40:36;;;;;;;81.07;34.75;;;6.80;99.90;;;;;;5094159;28;20032;-51
2022/01/29 02:43:19;;;;;;;84.90;37.22;;;6.80;99.90;;;;;;5076324;28;20487;-52
2022/01/29 02:45:46;;;;;;;81.15;35.65;;;6.90;99.90;;;;;;5093721;28;20115;-52
2022/01/29 02:48:12;;;;;;;86.60;35.75;;;6.90;99.90;;;;;;5094554;28;20064;-53
2022/01/29 02:50:39;;;;;;;78.38;33.97;;;6.90;99.90;;;;;;5094149;28;20137;-54
2022/01/29 02:53:05;;;;;;;80.78;34.55;;;6.90;99.90;;;;;;5094302;28;20106;-53
2022/01/29 02:55:31;;;;;;;77.93;34.35;;;6.90;99.90;;;;;;5094308;28;20048;-53
2022/01/29 02:57:57;;;;;;;68.55;32.80;;;7.00;99.90;;;;;;5094316;28;20390;-52
2022/01/29 03:00:23;;;;;;;73.85;33.00;;;7.00;99.90;;;;;;5093789;28;20558;-51
2022/01/29 03:02:48;;;;;;;72.65;31.92;;;7.00;99.90;;;;;;5092516;28;20071;-54
2022/01/29 03:05:14;;;;;;;68.53;31.90;;;7.00;99.90;;;;;;5094181;28;20040;-51
2022/01/29 03:07:39;;;;;;;69.65;30.30;;;7.00;99.90;;;;;;5074536;28;20048;-53
2022/01/29 03:10:06;;;;;;;68.13;30.05;;;7.10;99.90;;;;;;5093781;28;20121;-53
2022/01/29 03:12:32;;;;;;;65.63;28.27;;;7.10;99.90;;;;;;5093472;28;20401;-52
2022/01/29 03:14:58;;;;;;;68.82;30.52;;;7.10;99.90;;;;;;5093793;28;20044;-52
2022/01/29 03:17:23;;;;;;;61.90;29.15;;;7.10;99.90;;;;;;5093749;28;20035;-51
2022/01/29 03:19:52;;;;;;;54.35;28.15;;;7.20;99.90;;;;;;5093448;28;20032;-52
2022/01/29 03:22:18;;;;;;;61.58;27.52;;;7.20;99.90;;;;;;5093673;28;20052;-50
2022/01/29 03:24:44;;;;;;;58.20;27.98;;;7.20;99.90;;;;;;5093272;28;20064;-54
2022/01/29 03:27:10;;;;;;;58.83;27.95;;;7.20;99.90;;;;;;5092696;28;20085;-53
2022/01/29 03:29:35;;;;;;;55.70;27.52;;;7.20;99.90;;;;;;5092663;28;20035;-54
2022/01/29 03:32:01;;;;;;;56.40;27.25;;;7.20;99.90;;;;;;5093435;28;20043;-53
2022/01/29 03:34:27;;;;;;;56.33;26.67;;;7.30;99.90;;;;;;5093383;28;20032;-53
2022/01/29 03:36:55;;;;;;;59.80;27.88;;;7.30;99.90;;;;;;5093139;28;20510;-52
2022/01/29 03:39:21;;;;;;;53.20;27.15;;;7.30;99.90;;;;;;5093386;28;20498;-51
2022/01/29 03:41:47;;;;;;;60.33;25.98;;;7.40;99.90;;;;;;5093138;28;20495;-53
2022/01/29 03:44:13;;;;;;;59.58;26.65;;;7.40;99.90;;;;;;5093317;28;20040;-50
2022/01/29 03:46:38;;;;;;;52.70;25.17;;;7.40;99.90;;;;;;5092893;28;20058;-51
2022/01/29 03:49:04;;;;;;;57.88;26.35;;;7.50;99.90;;;;;;5093028;28;20075;-51
2022/01/29 03:51:30;;;;;;;49.60;25.73;;;7.50;99.90;;;;;;5093312;28;20040;-51
2022/01/29 03:53:55;;;;;;;55.25;25.45;;;7.50;99.90;;;;;;5092808;28;20036;-53
2022/01/29 03:56:21;;;;;;;53.08;25.05;;;7.50;99.90;;;;;;5089530;28;20040;-53
2022/01/29 03:58:47;;;;;;;58.15;25.40;;;7.50;99.90;;;;;;5092888;28;20119;-51
2022/01/29 04:01:12;;;;;;;55.10;24.15;;;7.60;99.90;;;;;;5091942;28;20044;-51
2022/01/29 04:03:38;;;;;;;54.03;23.50;;;7.60;99.90;;;;;;5092772;28;20116;-51
2022/01/29 04:06:04;;;;;;;43.88;23.08;;;7.60;99.90;;;;;;5092589;28;20043;-49
2022/01/29 04:08:32;;;;;;;49.75;23.63;;;7.60;99.90;;;;;;5091052;28;20039;-51
2022/01/29 04:10:58;;;;;;;48.00;24.38;;;7.60;99.90;;;;;;5092285;28;20044;-48
2022/01/29 04:13:26;;;;;;;49.13;24.00;;;7.60;99.90;;;;;;5092293;28;20055;-51
2022/01/29 04:15:52;;;;;;;57.08;25.13;;;7.60;99.90;;;;;;5092504;28;20039;-52
2022/01/29 04:18:21;;;;;;;39.28;20.80;;;7.60;99.90;;;;;;5092516;28;20410;-53
2022/01/29 04:20:46;;;;;;;49.33;23.58;;;7.60;99.90;;;;;;5092178;28;20040;-53
2022/01/29 04:23:12;;;;;;;49.80;23.15;;;7.70;99.90;;;;;;5092503;28;20047;-51
2022/01/29 04:25:38;;;;;;;49.65;23.27;;;7.60;99.90;;;;;;5092359;28;20044;-51
2022/01/29 04:28:05;;;;;;;48.72;21.42;;;7.70;99.90;;;;;;5092369;28;20672;-53
2022/01/29 04:30:39;;;;;;;49.10;22.38;;;7.60;99.90;;;;;;5091580;28;20075;-52
2022/01/29 04:33:24;;;;;;;40.08;19.65;;;7.60;99.90;;;;;;5091696;28;20035;-49
2022/01/29 04:35:50;;;;;;;49.95;20.83;;;7.70;99.90;;;;;;5073469;28;20047;-51
2022/01/29 04:38:16;;;;;;;45.53;20.77;;;7.70;99.90;;;;;;5091433;28;20129;-51
2022/01/29 04:40:42;;;;;;;45.33;21.40;;;7.70;99.90;;;;;;5091545;28;20106;-53
2022/01/29 04:43:08;;;;;;;43.35;21.30;;;7.70;99.90;;;;;;5092030;28;20036;-51
2022/01/29 04:45:34;;;;;;;43.20;21.13;;;7.70;99.90;;;;;;5091684;28;20115;-52
2022/01/29 04:48:00;;;;;;;40.72;20.50;;;7.80;99.90;;;;;;5090547;28;20518;-51
2022/01/29 04:50:26;;;;;;;49.53;22.52;;;7.70;99.90;;;;;;5092079;28;20080;-53
2022/01/29 04:52:52;;;;;;;46.90;21.23;;;7.70;99.90;;;;;;5091679;28;20458;-53
2022/01/29 04:55:18;;;;;;;40.17;21.55;;;7.70;99.90;;;;;;5091583;28;20039;-52
2022/01/29 04:57:43;;;;;;;41.90;19.75;;;7.70;99.90;;;;;;5091528;28;20131;-52
2022/01/29 05:00:12;;;;;;;41.22;19.75;;;7.80;99.90;;;;;;5072659;28;20040;-54
2022/01/29 05:02:38;;;;;;;44.05;19.63;;;7.80;99.90;;;;;;5091454;28;20059;-53
2022/01/29 05:05:05;;;;;;;42.80;20.42;;;7.80;99.90;;;;;;5091742;28;20550;-53
2022/01/29 05:07:31;;;;;;;45.75;20.52;;;7.80;99.90;;;;;;5091020;28;20090;-55
2022/01/29 05:09:57;;;;;;;39.55;20.23;;;7.80;99.90;;;;;;5091760;28;20036;-55
2022/01/29 05:12:28;;;;;;;37.80;19.77;;;7.80;99.90;;;;;;5091315;28;20043;-53
2022/01/29 05:28:05;;;;;;;36.15;19.65;;;8.00;99.90;;;;;;5091460;28;20066;-53
2022/01/29 05:30:31;;;;;;;36.17;20.20;;;8.00;99.90;;;;;;5090980;28;20039;-53
2022/01/29 05:32:56;;;;;;;39.63;19.38;;;8.00;99.90;;;;;;5072869;28;20043;-54
2022/01/29 05:35:22;;;;;;;40.70;19.48;;;8.00;99.90;;;;;;5091227;28;20034;-53
2022/01/29 05:37:50;;;;;;;36.00;18.73;;;8.20;99.90;;;;;;5091322;28;20040;-50
2022/01/29 05:40:17;;;;;;;34.05;17.70;;;8.10;99.90;;;;;;5090882;28;20387;-52
2022/01/29 05:42:42;;;;;;;37.30;18.15;;;8.10;99.90;;;;;;5090965;28;20032;-55
2022/01/29 05:45:08;;;;;;;35.03;17.77;;;8.10;99.90;;;;;;5090931;28;20131;-51
2022/01/29 05:47:35;;;;;;;33.05;17.38;;;8.10;99.90;;;;;;5090639;28;20083;-54
2022/01/29 05:50:01;;;;;;;36.67;18.17;;;8.10;99.90;;;;;;5092880;28;20092;-50
2022/01/29 05:52:27;;;;;;;37.08;19.08;;;8.10;99.90;;;;;;5097211;28;20041;-52
2022/01/29 05:54:53;;;;;;;33.65;17.38;;;8.10;99.90;;;;;;5097890;28;20039;-52
2022/01/29 05:57:18;;;;;;;38.47;18.38;;;8.10;99.90;;;;;;5097735;28;20093;-52
2022/01/29 05:59:44;;;;;;;35.50;17.50;;;8.10;99.90;;;;;;5096913;28;20396;-54
2022/01/29 06:02:10;;;;;;;32.72;16.85;;;8.10;99.90;;;;;;5062611;28;20043;-53
2022/01/29 06:04:35;;;;;;;40.08;17.02;;;8.10;99.90;;;;;;5097439;28;20048;-54
2022/01/29 06:07:01;;;;;;;42.00;16.05;;;8.10;99.90;;;;;;5079148;28;20410;-54
2022/01/29 06:09:27;;;;;;;31.20;15.48;;;8.10;99.90;;;;;;5097144;28;20403;-56
2022/01/29 06:11:52;;;;;;;30.02;16.08;;;8.10;99.90;;;;;;5097486;28;20032;-52
2022/01/29 06:14:18;;;;;;;35.92;16.45;;;8.10;99.90;;;;;;5097554;28;20043;-54
2022/01/29 06:16:44;;;;;;;30.15;15.93;;;8.10;99.90;;;;;;5097556;28;20032;-52
2022/01/29 06:19:09;;;;;;;31.83;15.57;;;8.10;99.90;;;;;;5097395;28;20044;-53
2022/01/29 06:21:35;;;;;;;34.83;16.30;;;8.10;99.90;;;;;;5062449;28;20510;-53
2022/01/29 06:24:02;;;;;;;33.30;15.52;;;8.10;99.90;;;;;;5097603;28;20075;-53
2022/01/29 06:26:28;;;;;;;31.02;14.70;;;8.10;99.90;;;;;;5097362;28;20052;-51
2022/01/29 06:28:53;;;;;;;30.05;14.90;;;8.10;99.90;;;;;;5097604;28;20542;-52
2022/01/29 06:31:19;;;;;;;33.05;15.52;;;8.10;99.90;;;;;;5096702;28;20111;-54
2022/01/29 06:33:45;;;;;;;33.20;14.23;;;8.10;99.90;;;;;;5097294;28;20035;-51
2022/01/29 06:36:11;;;;;;;29.27;13.90;;;8.10;99.90;;;;;;5097086;28;20035;-55
2022/01/29 06:38:36;;;;;;;27.38;13.80;;;8.10;99.90;;;;;;5079066;28;20036;-52
2022/01/29 06:41:03;;;;;;;30.02;13.45;;;8.10;99.90;;;;;;5097432;28;20402;-53
2022/01/29 06:43:29;;;;;;;29.13;13.07;;;8.20;99.90;;;;;;5097390;28;20043;-53
2022/01/29 06:45:55;;;;;;;26.05;13.27;;;8.30;99.90;;;;;;5096788;28;20097;-53
2022/01/29 06:48:21;;;;;;;23.08;12.60;;;8.20;99.90;;;;;;5097054;28;20024;-52
2022/01/29 06:50:47;;;;;;;24.83;12.93;;;8.30;99.90;;;;;;5097366;28;20071;-56
2022/01/29 06:53:13;;;;;;;24.65;12.77;;;8.20;99.90;;;;;;5078647;28;20522;-51
2022/01/29 06:55:39;;;;;;;28.25;12.13;;;8.30;99.90;;;;;;5096778;28;20479;-50
2022/01/29 06:58:05;;;;;;;28.00;11.93;;;8.30;99.90;;;;;;5097279;28;20050;-51
2022/01/29 07:00:30;;;;;;;23.05;11.18;;;8.40;99.90;;;;;;5096761;28;20040;-53
2022/01/29 07:02:56;;;;;;;24.40;11.75;;;8.60;99.90;;;;;;5093001;28;20067;-52
2022/01/29 07:05:22;;;;;;;25.48;12.43;;;8.40;99.90;;;;;;5093724;28;20116;-53
2022/01/29 07:07:48;;;;;;;24.65;12.43;;;8.40;99.90;;;;;;5093124;28;20143;-53
2022/01/29 07:10:14;;;;;;;27.95;12.50;;;8.40;99.90;;;;;;5094025;28;20545;-53
2022/01/29 07:12:40;;;;;;;29.88;12.90;;;8.40;99.90;;;;;;5093728;28;20048;-53
2022/01/29 07:15:10;;;;;;;27.92;12.18;;;8.40;99.90;;;;;;5093624;28;20115;-52
2022/01/29 07:17:37;;;;;;;29.77;12.80;;;8.40;99.90;;;;;;5093085;28;20435;-51
2022/01/29 07:20:04;;;;;;;23.95;12.80;;;8.40;99.90;;;;;;5093473;28;20055;-55
2022/01/29 07:22:30;;;;;;;27.27;12.27;;;8.40;99.90;;;;;;5092035;28;20040;-52
2022/01/29 07:24:56;;;;;;;25.58;12.57;;;8.40;99.90;;;;;;5093515;28;20089;-51
2022/01/29 07:27:21;;;;;;;26.27;11.77;;;8.40;99.90;;;;;;5093507;28;20086;-54
2022/01/29 07:29:47;;;;;;;25.15;11.88;;;8.40;99.90;;;;;;5092909;28;20056;-51
2022/01/29 07:32:13;;;;;;;25.77;11.93;;;8.40;99.90;;;;;;5075456;28;20502;-52
2022/01/29 07:34:39;;;;;;;24.83;12.18;;;8.40;99.90;;;;;;5093352;28;20390;-54
2022/01/29 07:37:04;;;;;;;27.48;12.10;;;8.40;99.90;;;;;;5093046;28;20127;-55
2022/01/29 07:39:31;;;;;;;24.70;12.30;;;8.50;99.90;;;;;;5093431;28;20086;-54
2022/01/29 07:41:57;;;;;;;25.40;12.15;;;8.50;99.90;;;;;;5093293;28;20406;-51
2022/01/29 07:44:23;;;;;;;30.17;12.75;;;8.40;99.90;;;;;;5093023;28;20119;-50
2022/01/29 07:46:49;;;;;;;24.40;13.10;;;8.40;99.90;;;;;;5092861;28;20487;-51
2022/01/29 07:49:15;;;;;;;24.00;11.65;;;8.40;99.90;;;;;;5074851;28;20055;-52
2022/01/29 07:51:41;;;;;;;21.80;11.40;;;8.60;99.90;;;;;;5093135;28;20426;-53
2022/01/29 07:54:07;;;;;;;25.48;11.93;;;8.50;99.90;;;;;;5092775;28;20519;-52
2022/01/29 07:56:33;;;;;;;24.02;11.82;;;8.50;99.90;;;;;;5092920;28;20040;-51
2022/01/29 07:58:59;;;;;;;26.08;11.82;;;8.50;99.90;;;;;;5092606;28;20048;-54
2022/01/29 08:01:24;;;;;;;20.92;11.85;;;8.50;99.90;;;;;;5092641;28;20036;-55
2022/01/29 08:03:52;;;;;;;22.92;10.10;;;8.50;99.90;;;;;;5093086;28;20032;-52
2022/01/29 08:06:19;;;;;;;20.75;10.75;;;8.60;99.90;;;;;;5092105;28;20051;-52
2022/01/29 08:08:45;;;;;;;25.55;11.38;;;8.60;99.90;;;;;;5093074;28;20036;-52
2022/01/29 08:11:12;;;;;;;25.52;10.43;;;8.60;99.90;;;;;;5092417;28;20040;-53
2022/01/29 08:13:38;;;;;;;17.45;9.35;;;8.60;99.90;;;;;;5092350;28;20046;-51
2022/01/29 08:16:05;;;;;;;19.63;8.48;;;8.70;99.90;;;;;;5092053;28;20124;-52
2022/01/29 08:18:30;;;;;;;21.13;9.40;;;8.70;99.90;;;;;;5092130;28;20094;-54
2022/01/29 08:20:56;;;;;;;21.33;8.85;;;8.70;99.90;;;;;;5092173;28;20036;-50
2022/01/29 08:23:22;;;;;;;23.30;8.80;;;8.70;99.90;;;;;;5092611;28;20467;-54
2022/01/29 08:25:48;;;;;;;25.47;9.60;;;8.70;99.90;;;;;;5092525;28;20131;-52
2022/01/29 08:28:14;;;;;;;24.30;9.35;;;8.70;99.90;;;;;;5092256;28;20043;-54
2022/01/29 08:30:40;;;;;;;21.70;8.55;;;8.70;99.90;;;;;;5091916;28;20040;-53
2022/01/29 08:33:06;;;;;;;19.55;8.32;;;8.70;99.90;;;;;;5092002;28;20028;-52
2022/01/29 08:35:33;;;;;;;20.65;8.60;;;8.70;99.90;;;;;;5092145;28;20036;-53
2022/01/29 08:37:59;;;;;;;20.58;8.40;;;8.80;99.90;;;;;;5091797;28;20048;-54
2022/01/29 08:40:25;;;;;;;17.67;8.18;;;8.80;99.90;;;;;;5073566;28;20036;-55
2022/01/29 08:42:50;;;;;;;16.52;8.65;;;8.80;99.90;;;;;;5091913;28;20390;-56
2022/01/29 08:45:17;;;;;;;17.42;7.88;;;8.80;99.90;;;;;;5091830;28;20047;-52
2022/01/29 08:47:42;;;;;;;17.92;8.25;;;8.90;99.90;;;;;;5087785;28;20028;-55
2022/01/29 08:50:10;;;;;;;16.00;8.25;;;8.80;99.90;;;;;;5079945;28;21226;-55
2022/01/29 08:52:37;;;;;;;17.85;7.95;;;8.90;99.90;;;;;;5090548;28;20032;-54
2022/01/29 08:55:04;;;;;;;17.10;9.38;;;8.90;99.90;;;;;;5084210;28;20032;-55
2022/01/29 08:57:30;;;;;;;20.88;8.73;;;9.50;99.90;;;;;;5080570;28;20039;-52
2022/01/29 08:59:56;;;;;;;18.88;8.43;;;8.90;99.90;;;;;;5082909;28;20043;-55
2022/01/29 09:02:22;;;;;;;19.00;8.85;;;8.90;99.90;;;;;;5082644;28;20427;-50
2022/01/29 09:04:48;;;;;;;19.15;8.63;;;9.00;99.90;;;;;;5083570;28;20028;-57
2022/01/29 09:07:14;;;;;;;20.25;9.40;;;8.90;99.90;;;;;;5081546;28;20123;-55
2022/01/29 09:09:44;;;;;;;17.85;8.85;;;8.90;99.90;;;;;;5064679;28;20047;-54
2022/01/29 09:12:10;;;;;;;25.60;8.23;;;8.90;99.90;;;;;;5083169;28;20036;-49
2022/01/29 09:14:36;;;;;;;19.10;9.45;;;8.90;99.90;;;;;;5082798;28;23350;-50
2022/01/29 09:17:02;;;;;;;19.13;8.70;;;8.90;99.90;;;;;;5082538;28;20036;-51
2022/01/29 09:19:28;;;;;;;19.13;8.32;;;8.90;99.90;;;;;;5082941;28;20039;-54
2022/01/29 09:21:54;;;;;;;16.38;8.32;;;8.90;99.90;;;;;;5084855;28;20044;-55
2022/01/29 09:24:19;;;;;;;16.50;7.72;;;9.00;99.90;;;;;;5082331;28;20040;-51
2022/01/29 09:26:45;;;;;;;14.75;6.47;;;9.00;99.90;;;;;;5082533;28;20028;-55
2022/01/29 09:29:12;;;;;;;16.50;7.50;;;9.00;99.90;;;;;;5083893;28;20079;-54
2022/01/29 09:31:38;;;;;;;17.05;6.32;;;9.10;99.90;;;;;;5082056;28;20369;-52
2022/01/29 09:34:04;;;;;;;18.65;6.95;;;9.10;99.90;;;;;;5066743;28;20055;-53
2022/01/29 09:36:29;;;;;;;14.82;6.47;;;9.10;99.90;;;;;;5083386;28;20402;-51
2022/01/29 09:38:55;;;;;;;19.50;6.10;;;9.10;99.90;;;;;;5080630;28;20130;-54
2022/01/29 09:41:25;;;;;;;15.70;5.70;;;9.20;99.90;;;;;;5080236;28;20036;-55
2022/01/29 09:43:56;;;;;;;13.77;6.20;;;9.20;99.90;;;;;;5081406;28;20047;-54
2022/01/29 09:46:26;;;;;;;14.10;5.25;;;9.30;99.90;;;;;;5062185;28;20127;-54
2022/01/29 09:48:53;;;;;;;12.88;5.07;;;9.30;99.90;;;;;;5082736;28;20383;-53
2022/01/29 09:51:19;;;;;;;12.73;5.00;;;9.40;99.90;;;;;;5082785;28;20113;-53
2022/01/29 09:53:45;;;;;;;11.77;4.85;;;9.40;99.90;;;;;;5082577;28;20067;-54
2022/01/29 09:56:12;;;;;;;11.00;4.13;;;9.40;99.90;;;;;;5092310;28;20058;-54
2022/01/29 09:58:39;;;;;;;13.25;4.53;;;9.40;99.90;;;;;;5062611;28;20403;-54
2022/01/29 10:01:05;;;;;;;12.63;3.95;;;9.40;99.90;;;;;;5079595;28;21009;-55
2022/01/29 10:03:30;;;;;;;14.77;4.47;;;9.50;99.90;;;;;;5076410;28;20084;-53
2022/01/29 10:05:57;;;;;;;10.30;4.03;;;9.50;99.90;;;;;;5080389;28;20383;-54
2022/01/29 10:08:24;;;;;;;14.00;3.60;;;9.50;99.90;;;;;;5076856;28;20040;-56
2022/01/29 10:10:57;;;;;;;10.18;3.85;;;9.50;99.90;;;;;;5060085;28;20467;-53
2022/01/29 10:13:27;;;;;;;8.43;3.22;;;9.50;99.90;;;;;;5076742;28;20089;-56
2022/01/29 10:16:07;;;;;;;10.25;3.00;;;9.50;99.90;;;;;;5074677;28;20033;-54
2022/01/29 10:18:33;;;;;;;17.73;3.47;;;9.50;99.90;;;;;;5079203;28;20189;-54
2022/01/29 10:21:17;;;;;;;9.30;3.20;;;9.60;99.90;;;;;;5074209;28;20040;-55
2022/01/29 10:23:44;;;;;;;9.95;3.35;;;9.60;99.90;;;;;;5075127;28;20074;-54
2022/01/29 10:26:10;;;;;;;11.93;3.05;;;9.60;99.90;;;;;;5078859;28;20089;-53
2022/01/29 10:28:37;;;;;;;12.50;3.10;;;9.60;99.90;;;;;;5058385;28;20032;-53
2022/01/29 10:31:08;;;;;;;11.15;3.05;;;9.60;99.90;;;;;;5074572;28;20044;-56
2022/01/29 10:33:42;;;;;;;16.25;3.65;;;9.60;99.90;;;;;;5081468;28;20085;-52
2022/01/29 10:36:14;;;;;;;10.25;3.10;;;9.70;99.90;;;;;;5058480;28;20495;-51
2022/01/29 10:38:40;;;;;;;9.98;3.67;;;9.70;99.90;;;;;;5064931;28;20036;-54
2022/01/29 10:41:28;;;;;;;14.82;4.88;;;9.70;99.90;;;;;;5085749;28;20040;-51
2022/01/29 10:43:57;;;;;;;21.23;7.70;;;9.70;99.90;;;;;;5085987;28;20043;-51
2022/01/29 10:46:31;;;;;;;16.95;5.82;;;9.80;99.90;;;;;;5084944;28;20044;-53
2022/01/29 10:48:58;;;;;;;13.47;4.27;;;9.80;99.90;;;;;;5066414;28;20046;-55
2022/01/29 10:51:25;;;;;;;9.57;2.90;;;9.80;99.90;;;;;;5083634;28;20302;-55
2022/01/29 10:53:53;;;;;;;10.05;2.75;;;9.90;99.90;;;;;;5086178;28;20032;-51
2022/01/29 10:56:19;;;;;;;11.57;3.25;;;10.00;99.90;;;;;;5085519;28;20044;-52
2022/01/29 10:58:47;;;;;;;9.18;3.03;;;10.10;99.90;;;;;;5084627;28;20055;-53
2022/01/29 11:01:22;;;;;;;9.27;2.70;;;10.10;99.90;;;;;;5085904;28;20050;-53
2022/01/29 11:03:50;;;;;;;9.68;2.75;;;10.10;99.90;;;;;;5085165;28;20036;-54
2022/01/29 11:06:19;;;;;;;13.75;3.80;;;10.10;99.90;;;;;;5083844;28;20044;-50
2022/01/29 11:08:45;;;;;;;15.73;3.90;;;10.20;99.90;;;;;;5065899;28;20064;-54
2022/01/29 11:11:13;;;;;;;12.43;3.45;;;10.20;99.90;;;;;;5084188;28;20267;-53
2022/01/29 11:13:40;;;;;;;9.02;2.95;;;10.20;99.90;;;;;;5085805;28;20074;-53
2022/01/29 11:16:06;;;;;;;14.20;3.78;;;10.10;99.90;;;;;;5084383;28;20079;-54
2022/01/29 11:18:33;;;;;;;10.98;3.42;;;10.10;99.90;;;;;;5084282;28;20142;-54
2022/01/29 11:21:00;;;;;;;14.18;3.95;;;10.10;99.90;;;;;;5089085;28;20083;-52
2022/01/29 11:23:27;;;;;;;42.90;16.92;;;9.70;99.90;;;;;;5084629;28;20472;-53
2022/01/29 11:25:59;;;;;;;70.13;27.63;;;10.20;99.90;;;;;;5087991;28;20036;-54
2022/01/29 11:28:27;;;;;;;58.75;23.27;;;10.20;99.90;;;;;;5089820;28;20029;-50
2022/01/29 11:31:28;;;;;;;30.65;11.90;;;10.20;99.90;;;;;;5091069;28;20039;-52
2022/01/29 11:33:59;;;;;;;17.52;5.97;;;10.30;99.90;;;;;;5048848;28;20127;-54
2022/01/29 11:36:47;;;;;;;16.10;5.32;;;10.30;99.90;;;;;;5087048;28;20036;-53
2022/01/29 11:39:19;;;;;;;17.35;6.15;;;10.40;99.90;;;;;;5090928;28;20036;-55
2022/01/29 11:41:45;;;;;;;13.77;4.10;;;10.40;99.90;;;;;;5084062;28;20041;-53
2022/01/29 11:44:27;;;;;;;14.73;3.65;;;10.40;99.90;;;;;;5089739;28;20044;-52
2022/01/29 11:46:53;;;;;;;12.18;3.42;;;10.40;99.90;;;;;;5087699;28;20552;-54
2022/01/29 11:49:21;;;;;;;9.65;2.90;;;10.40;99.90;;;;;;5088915;28;20127;-54
2022/01/29 11:51:52;;;;;;;9.95;2.67;;;10.40;99.90;;;;;;5089601;28;20059;-54
2022/01/29 11:54:26;;;;;;;11.30;2.58;;;10.40;99.90;;;;;;5088385;28;20071;-53
2022/01/29 11:57:05;;;;;;;;;;;10.50;99.90;;;;;;5091450;28;20048;-49
2022/01/29 11:59:32;;;;;;;7.90;2.10;;;10.50;99.90;;;;;;5086002;28;19970;-55
2022/01/29 12:01:59;;;;;;;9.07;2.10;;;10.60;99.90;;;;;;5087387;28;20079;-53
2022/01/29 12:04:58;;;;;;;9.73;2.42;;;10.50;99.90;;;;;;5089277;28;20105;-53
2022/01/29 12:10:03;;;;;;;18.48;5.90;;;10.60;99.90;;;;;;5092552;28;20036;-54
2022/01/29 12:12:30;;;;;;;24.80;7.93;;;10.70;99.90;;;;;;5086212;28;20513;-52
2022/01/29 12:15:11;;;;;;;14.75;4.90;;;10.50;99.90;;;;;;5072245;28;20035;-53
2022/01/29 12:17:43;;;;;;;14.27;2.85;;;10.50;99.90;;;;;;5086059;28;20044;-51
2022/01/29 12:20:17;;;;;;;8.13;1.77;;;10.50;99.90;;;;;;5085319;28;20085;-51
2022/01/29 12:22:44;;;;;;;;;;;10.50;99.90;;;;;;5088871;28;20042;-54
2022/01/29 12:25:13;;;;;;;12.95;2.30;;;10.40;99.90;;;;;;5086892;28;19931;-55
2022/01/29 12:27:53;;;;;;;11.40;3.90;;;10.50;99.90;;;;;;5087526;28;20044;-51
2022/01/29 12:30:32;;;;;;;12.88;4.55;;;10.50;99.90;;;;;;5089659;28;20502;-52
2022/01/29 12:33:11;;;;;;;11.23;3.10;;;10.50;99.90;;;;;;5084917;28;20032;-53
2022/01/29 12:35:41;;;;;;;14.35;3.10;;;10.50;99.90;;;;;;5088360;28;20063;-54
2022/01/29 12:38:10;;;;;;;9.98;2.53;;;10.50;99.90;;;;;;5087767;28;20044;-51
2022/01/29 12:40:42;;;;;;;10.70;2.10;;;10.50;99.90;;;;;;5084599;28;20037;-52
2022/01/29 12:43:36;;;;;;;14.50;2.08;;;10.70;99.90;;;;;;5090404;28;20039;-55
2022/01/29 12:46:13;;;;;;;16.27;2.55;;;10.60;99.90;;;;;;5091625;28;20372;-52
2022/01/29 12:48:41;;;;;;;10.10;1.98;;;10.70;99.90;;;;;;5073141;28;20046;-54
2022/01/29 12:51:09;;;;;;;12.48;2.45;;;10.70;99.90;;;;;;5091689;28;20551;-54
2022/01/29 12:53:35;;;;;;;7.20;1.90;;;10.70;99.90;;;;;;5090463;28;20031;-51
2022/01/29 12:56:06;;;;;;;13.35;2.30;;;10.80;99.90;;;;;;5089945;28;20048;-53
2022/01/29 12:58:42;;;;;;;13.68;2.33;;;10.80;99.90;;;;;;5091630;28;20055;-55